Time;durP1;ratioP1;P1;durP2;ratioP2;P2;SDS_P1;SDS_P2;PMS_P1;PMS_P2;Temp;Humidity;BMP_temperature;BMP_pressure;BME280_temperature;BME280_humidity;BME280_pressure;Samples;Min_cycle;Max_cycle;Signal;HPM_P1;HPM_P2
2022/11/27 15:03:11;;;;;;;4.95;3.60;;;9.40;69.50;;;;;;5134570;27;20104;-50
2022/11/27 15:05:38;;;;;;;9.77;4.78;;;9.30;69.10;;;;;;5132567;28;20023;-61
2022/11/27 15:08:09;;;;;;;14.23;6.38;;;9.40;68.70;;;;;;5132895;27;20023;-60
2022/11/27 15:10:38;;;;;;;9.43;4.65;;;9.40;69.30;;;;;;5131973;28;20022;-49
2022/11/27 15:13:06;;;;;;;10.02;4.90;;;9.50;69.70;;;;;;5132778;27;20020;-49
2022/11/27 15:15:40;;;;;;;8.98;4.90;;;9.50;69.60;;;;;;5133066;27;20024;-51
2022/11/27 15:18:08;;;;;;;9.68;4.25;;;9.40;69.80;;;;;;5133625;27;20529;-52
2022/11/27 15:20:44;;;;;;;9.13;5.47;;;9.30;70.70;;;;;;5133510;27;20015;-50
2022/11/27 15:23:24;;;;;;;9.13;4.60;;;9.30;71.00;;;;;;5133253;27;20019;-51
2022/11/27 15:26:11;;;;;;;14.20;6.10;;;9.30;71.10;;;;;;5133157;27;20024;-52
2022/11/27 15:28:48;;;;;;;9.77;5.43;;;9.30;70.90;;;;;;5131040;27;20039;-49
2022/11/27 15:31:34;;;;;;;7.55;3.95;;;9.40;70.40;;;;;;5132850;28;20030;-50
2022/11/27 15:34:22;;;;;;;11.43;5.47;;;9.40;69.80;;;;;;5131693;28;20032;-51
2022/11/27 15:37:00;;;;;;;8.38;3.95;;;9.40;69.90;;;;;;5133340;28;20110;-52
2022/11/27 15:39:36;;;;;;;7.40;3.47;;;9.40;70.10;;;;;;5131876;27;20472;-52
2022/11/27 15:42:04;;;;;;;4.82;2.33;;;9.30;69.90;;;;;;5131530;27;20047;-51
2022/11/27 15:44:31;;;;;;;4.72;2.72;;;9.30;70.40;;;;;;5132037;27;20485;-52
2022/11/27 15:47:00;;;;;;;5.18;2.83;;;9.30;69.50;;;;;;5130855;28;20486;-51
2022/11/27 15:49:27;;;;;;;4.65;2.83;;;9.30;68.80;;;;;;5130896;27;20087;-49
2022/11/27 15:51:55;;;;;;;5.47;3.63;;;9.30;68.20;;;;;;5130713;28;20082;-51
2022/11/27 15:54:21;;;;;;;9.07;5.25;;;9.40;67.90;;;;;;5129990;28;20020;-49
2022/11/27 15:56:48;;;;;;;10.13;4.55;;;9.30;67.80;;;;;;5113349;28;20047;-52
2022/11/27 15:59:15;;;;;;;10.52;4.35;;;9.30;67.80;;;;;;5129595;27;20024;-53
2022/11/27 16:01:41;;;;;;;10.13;4.60;;;9.30;68.00;;;;;;5130249;27;20069;-50
2022/11/27 16:04:06;;;;;;;18.73;7.68;;;9.30;68.40;;;;;;5130413;27;20106;-47
2022/11/27 16:06:35;;;;;;;11.23;4.88;;;9.30;67.90;;;;;;5128704;28;20023;-49
2022/11/27 16:09:01;;;;;;;6.30;3.42;;;9.30;67.80;;;;;;5130502;27;20400;-50
2022/11/27 16:11:29;;;;;;;6.97;3.72;;;9.30;67.90;;;;;;5130500;27;20032;-50
2022/11/27 16:13:55;;;;;;;9.20;4.85;;;9.30;67.60;;;;;;5102105;28;20023;-50
2022/11/27 16:16:21;;;;;;;7.75;3.90;;;9.30;67.80;;;;;;5115581;28;20387;-48
2022/11/27 16:18:47;;;;;;;4.95;3.08;;;9.30;67.50;;;;;;5116838;28;20106;-49
2022/11/27 16:21:15;;;;;;;8.98;4.78;;;9.30;67.30;;;;;;5116696;28;20024;-49
2022/11/27 16:23:41;;;;;;;7.07;3.63;;;9.30;67.50;;;;;;5115282;28;20020;-48
2022/11/27 16:26:11;;;;;;;7.50;3.17;;;9.30;67.70;;;;;;5117293;28;20031;-50
2022/11/27 16:28:36;;;;;;;7.63;3.40;;;9.30;68.00;;;;;;5115435;28;20028;-50
2022/11/27 16:31:07;;;;;;;6.38;3.85;;;9.30;67.60;;;;;;5116291;28;20026;-49
2022/11/27 16:33:32;;;;;;;;;;;9.30;67.40;;;;;;5116810;28;20076;-49
2022/11/27 16:36:06;;;;;;;12.20;4.75;;;9.30;67.10;;;;;;5116146;28;19904;-48
2022/11/27 16:38:31;;;;;;;7.32;3.53;;;9.30;67.20;;;;;;5116189;28;20532;-50
2022/11/27 16:41:02;;;;;;;5.78;3.65;;;9.30;66.90;;;;;;5115729;28;20190;-50
2022/11/27 16:43:28;;;;;;;5.82;3.30;;;9.30;66.10;;;;;;5116336;28;20034;-49
2022/11/27 16:46:04;;;;;;;7.28;3.70;;;9.30;66.00;;;;;;5116162;28;20035;-51
2022/11/27 16:48:29;;;;;;;10.63;4.70;;;9.30;66.00;;;;;;5116345;28;20031;-49
2022/11/27 16:51:10;;;;;;;13.65;4.30;;;9.30;66.30;;;;;;5116146;28;20463;-49
2022/11/27 16:53:39;;;;;;;4.47;2.95;;;9.30;66.50;;;;;;5115831;28;20497;-62
2022/11/27 16:56:06;;;;;;;4.55;2.97;;;9.30;66.50;;;;;;5116495;28;20023;-53
2022/11/27 16:58:39;;;;;;;2.97;1.75;;;9.30;66.20;;;;;;5115988;28;20110;-50
2022/11/27 17:01:07;;;;;;;8.60;2.08;;;9.30;66.20;;;;;;5116297;28;20050;-52
2022/11/27 17:03:33;;;;;;;6.00;2.60;;;9.20;67.00;;;;;;5116003;28;20023;-49
2022/11/27 17:05:59;;;;;;;5.97;2.63;;;9.20;66.70;;;;;;5115901;28;20023;-50
2022/11/27 17:08:25;;;;;;;6.70;4.15;;;9.10;66.80;;;;;;5115966;28;20441;-50
2022/11/27 17:10:51;;;;;;;6.07;2.40;;;9.20;66.10;;;;;;5115881;28;20027;-50
2022/11/27 17:13:17;;;;;;;4.55;2.20;;;9.30;66.20;;;;;;5115533;28;20375;-62
2022/11/27 17:15:45;;;;;;;5.70;2.53;;;9.20;66.80;;;;;;5115958;28;20490;-50
2022/11/27 17:18:15;;;;;;;4.85;2.78;;;9.10;66.50;;;;;;5115838;28;20446;-50
2022/11/27 17:20:42;;;;;;;5.13;2.83;;;9.20;66.90;;;;;;5115811;28;20370;-50
2022/11/27 17:23:07;;;;;;;6.20;2.92;;;9.20;66.80;;;;;;5115449;28;20066;-50
2022/11/27 17:25:33;;;;;;;9.15;4.85;;;9.10;66.40;;;;;;5114033;28;20028;-49
2022/11/27 17:27:59;;;;;;;6.38;3.45;;;9.00;67.60;;;;;;5115142;27;20028;-50
2022/11/27 17:30:25;;;;;;;4.93;2.63;;;9.00;67.40;;;;;;5113947;28;20020;-50
2022/11/27 17:32:50;;;;;;;6.22;3.40;;;9.10;66.50;;;;;;5113898;28;20069;-50
2022/11/27 17:35:16;;;;;;;3.08;2.33;;;9.10;67.10;;;;;;5115829;28;20023;-50
2022/11/27 17:37:42;;;;;;;6.75;2.97;;;9.10;66.80;;;;;;5113804;28;20471;-51
2022/11/27 17:40:08;;;;;;;4.38;2.63;;;9.10;67.10;;;;;;5115438;28;20049;-50
2022/11/27 17:42:34;;;;;;;4.82;3.03;;;9.10;66.70;;;;;;5116319;28;20375;-50
2022/11/27 17:45:00;;;;;;;5.30;3.25;;;9.00;67.20;;;;;;5113376;28;20015;-50
2022/11/27 17:47:26;;;;;;;4.57;2.25;;;9.20;66.40;;;;;;5115091;28;20098;-50
2022/11/27 17:49:51;;;;;;;4.90;2.63;;;9.10;66.80;;;;;;5114777;28;20023;-50
2022/11/27 17:52:17;;;;;;;4.10;2.55;;;9.10;66.90;;;;;;5114765;28;20181;-49
2022/11/27 17:54:42;;;;;;;4.35;2.60;;;9.10;66.70;;;;;;5114556;28;20097;-49
2022/11/27 17:57:08;;;;;;;6.22;3.75;;;9.10;67.20;;;;;;5115167;28;20084;-49
2022/11/27 17:59:34;;;;;;;8.32;2.75;;;9.10;68.10;;;;;;5115037;28;20133;-54
2022/11/27 18:01:59;;;;;;;6.70;3.50;;;9.00;67.90;;;;;;5114105;28;20142;-48
2022/11/27 18:04:29;;;;;;;3.75;2.78;;;9.00;67.30;;;;;;5113088;28;20106;-50
2022/11/27 18:06:55;;;;;;;13.57;4.03;;;8.90;68.20;;;;;;5113158;28;20053;-50
2022/11/27 18:09:21;;;;;;;5.28;2.45;;;9.10;67.60;;;;;;5114505;28;20027;-51
2022/11/27 18:11:46;;;;;;;4.93;2.63;;;9.20;67.20;;;;;;5114433;28;20028;-50
2022/11/27 18:14:12;;;;;;;4.97;3.17;;;9.10;67.80;;;;;;5114251;28;20467;-52
2022/11/27 18:16:38;;;;;;;5.65;3.17;;;9.00;68.20;;;;;;5114657;28;20032;-50
2022/11/27 18:19:09;;;;;;;7.32;4.40;;;8.90;69.00;;;;;;5114353;28;20038;-50
2022/11/27 18:21:36;;;;;;;6.18;3.28;;;8.90;69.50;;;;;;5114238;28;20543;-49
2022/11/27 18:24:02;;;;;;;12.68;4.68;;;8.90;69.80;;;;;;5114146;27;20072;-51
2022/11/27 18:26:28;;;;;;;8.40;5.82;;;8.90;68.30;;;;;;5114181;28;20066;-50
2022/11/27 18:28:55;;;;;;;8.70;4.78;;;8.90;68.30;;;;;;5114454;27;20023;-50
2022/11/27 18:31:22;;;;;;;4.95;3.22;;;9.10;68.30;;;;;;5114148;28;20024;-48
2022/11/27 18:33:48;;;;;;;6.65;3.38;;;9.00;68.20;;;;;;5113891;28;20084;-49
2022/11/27 18:36:16;;;;;;;9.07;4.45;;;8.90;69.10;;;;;;5114221;28;20028;-52
2022/11/27 18:38:46;;;;;;;9.57;4.55;;;9.00;68.80;;;;;;5113612;28;20023;-52
2022/11/27 18:41:17;;;;;;;13.18;6.00;;;9.20;68.60;;;;;;5114080;28;20050;-51
2022/11/27 18:43:44;;;;;;;9.77;5.32;;;9.00;68.40;;;;;;5114116;28;20055;-49
2022/11/27 18:46:13;;;;;;;14.55;4.68;;;9.00;68.60;;;;;;5113795;28;20020;-53
2022/11/27 18:48:40;;;;;;;7.25;3.85;;;8.90;69.40;;;;;;5113594;28;20034;-50
2022/11/27 18:51:08;;;;;;;9.38;3.20;;;9.00;69.70;;;;;;5114162;28;20027;-51
2022/11/27 18:53:34;;;;;;;6.93;3.42;;;9.10;68.90;;;;;;5113798;28;20032;-51
2022/11/27 18:56:12;;;;;;;5.10;3.22;;;9.00;69.20;;;;;;5113883;28;20028;-48
2022/11/27 18:58:38;;;;;;;5.60;3.63;;;9.00;68.60;;;;;;5112279;28;20383;-49
2022/11/27 19:01:09;;;;;;;6.78;2.60;;;9.10;68.80;;;;;;5113284;28;20039;-49
2022/11/27 19:03:36;;;;;;;4.32;2.90;;;8.90;68.60;;;;;;5113820;28;20070;-54
2022/11/27 19:06:04;;;;;;;9.20;3.50;;;9.10;68.10;;;;;;5113620;28;20107;-50
2022/11/27 19:08:30;;;;;;;7.05;3.38;;;9.00;68.40;;;;;;5113737;28;20039;-51
2022/11/27 19:11:00;;;;;;;10.40;5.50;;;8.90;68.50;;;;;;5113632;28;20471;-49
2022/11/27 19:13:27;;;;;;;9.98;4.45;;;9.10;67.50;;;;;;5113787;28;20016;-53
2022/11/27 19:15:52;;;;;;;8.95;4.30;;;9.10;67.80;;;;;;5113405;28;20472;-50
2022/11/27 19:18:18;;;;;;;9.65;3.95;;;9.20;67.60;;;;;;5113643;28;20020;-51
2022/11/27 19:20:43;;;;;;;9.25;3.53;;;9.30;66.80;;;;;;5113712;28;20076;-51
2022/11/27 19:23:09;;;;;;;9.35;3.95;;;9.20;67.40;;;;;;5113504;28;20028;-49
2022/11/27 19:25:37;;;;;;;8.15;3.42;;;9.10;67.50;;;;;;5113767;28;20467;-48
2022/11/27 19:28:08;;;;;;;4.88;3.13;;;8.90;68.20;;;;;;5113379;28;20020;-49
2022/11/27 19:30:38;;;;;;;8.10;3.72;;;8.80;68.90;;;;;;5113476;28;20102;-53
2022/11/27 19:33:04;;;;;;;;;;;8.80;69.10;;;;;;5113854;28;20032;-52
2022/11/27 19:35:30;;;;;;;7.53;3.78;;;8.80;68.80;;;;;;5113438;28;20006;-50
2022/11/27 19:37:57;;;;;;;15.20;7.78;;;8.90;68.80;;;;;;5113283;28;20027;-49
2022/11/27 19:40:23;;;;;;;16.48;6.28;;;9.10;68.80;;;;;;5113588;28;20076;-51
2022/11/27 19:42:52;;;;;;;9.25;4.53;;;9.00;69.10;;;;;;5113603;28;20433;-51
2022/11/27 19:45:20;;;;;;;5.63;3.67;;;9.00;69.00;;;;;;5112613;28;20505;-52
2022/11/27 19:47:46;;;;;;;8.70;4.63;;;8.90;69.50;;;;;;5114036;28;20020;-52
2022/11/27 19:50:12;;;;;;;8.60;4.47;;;8.90;69.30;;;;;;5117145;28;20028;-53
2022/11/27 19:52:38;;;;;;;7.97;4.75;;;8.80;69.10;;;;;;5117302;28;20531;-53
2022/11/27 19:55:05;;;;;;;10.75;5.82;;;8.80;69.10;;;;;;5117177;28;20070;-51
2022/11/27 19:57:30;;;;;;;9.70;4.57;;;8.90;67.90;;;;;;5117474;28;20043;-50
2022/11/27 19:59:56;;;;;;;6.85;3.67;;;9.10;67.20;;;;;;5117067;28;20031;-49
2022/11/27 20:02:22;;;;;;;6.50;4.18;;;9.30;66.40;;;;;;5116764;27;20130;-50
2022/11/27 20:04:47;;;;;;;7.50;3.88;;;9.00;67.80;;;;;;5116316;28;20032;-50
2022/11/27 20:07:13;;;;;;;7.78;3.33;;;9.10;67.40;;;;;;5116847;28;20030;-52
2022/11/27 20:09:38;;;;;;;10.63;4.72;;;9.20;67.80;;;;;;5117071;28;20026;-49
2022/11/27 20:12:04;;;;;;;5.95;3.50;;;9.00;68.50;;;;;;5117096;28;20028;-51
2022/11/27 20:14:30;;;;;;;15.05;8.10;;;8.80;69.10;;;;;;5115372;28;20479;-49
2022/11/27 20:16:56;;;;;;;12.00;6.97;;;8.80;69.50;;;;;;5117676;28;20024;-51
2022/11/27 20:19:22;;;;;;;10.80;4.93;;;8.90;68.30;;;;;;5116737;28;20023;-50
2022/11/27 20:21:47;;;;;;;13.40;5.47;;;8.90;68.30;;;;;;5116093;28;20028;-49
2022/11/27 20:24:13;;;;;;;10.90;5.60;;;8.80;68.50;;;;;;5116754;28;20379;-50
2022/11/27 20:26:39;;;;;;;12.82;4.53;;;8.80;68.30;;;;;;5116970;28;20031;-51
2022/11/27 20:29:05;;;;;;;4.72;3.15;;;8.80;68.60;;;;;;5115593;28;20035;-51
2022/11/27 20:31:33;;;;;;;13.30;4.80;;;8.80;68.90;;;;;;5116635;28;20059;-52
2022/11/27 20:34:02;;;;;;;8.60;3.97;;;8.90;69.20;;;;;;5116850;28;20058;-48
2022/11/27 20:36:29;;;;;;;5.97;3.75;;;9.00;67.90;;;;;;5117187;28;20028;-52
2022/11/27 20:38:57;;;;;;;6.85;3.78;;;8.80;68.40;;;;;;5117206;28;20554;-50
2022/11/27 20:41:23;;;;;;;10.60;3.70;;;8.80;68.60;;;;;;5116803;28;20032;-50
2022/11/27 20:43:53;;;;;;;7.25;3.58;;;8.80;67.20;;;;;;5116475;28;20024;-50
2022/11/27 20:46:19;;;;;;;7.85;3.80;;;8.80;68.20;;;;;;5116395;28;20023;-50
2022/11/27 20:48:47;;;;;;;8.82;3.53;;;8.80;67.90;;;;;;5116420;28;20524;-53
2022/11/27 20:51:15;;;;;;;7.03;3.00;;;8.80;67.90;;;;;;5115379;28;20495;-51
2022/11/27 20:53:42;;;;;;;4.07;2.60;;;8.80;67.70;;;;;;5115301;28;20386;-49
2022/11/27 20:56:10;;;;;;;5.30;2.65;;;8.80;67.10;;;;;;5115651;28;20454;-50
2022/11/27 20:58:37;;;;;;;6.80;2.78;;;8.90;66.90;;;;;;5116012;27;20098;-50
